sensor_id;sensor_type;location;lat;lon;timestamp;P1;durP1;ratioP1;P2;durP2;ratioP2
3867;SDS011;1949;48.152;11.528;2023-01-31T00:01:26;2.73;;;1.70;;
3867;SDS011;1949;48.152;11.528;2023-01-31T00:03:58;6.73;;;2.40;;
3867;SDS011;1949;48.152;11.528;2023-01-31T00:06:33;4.40;;;1.73;;
3867;SDS011;1949;48.152;11.528;2023-01-31T00:09:04;4.87;;;2.10;;
3867;SDS011;1949;48.152;11.528;2023-01-31T00:14:00;11.13;;;2.40;;
3867;SDS011;1949;48.152;11.528;2023-01-31T00:16:29;4.67;;;2.83;;
3867;SDS011;1949;48.152;11.528;2023-01-31T00:18:57;19.13;;;2.90;;
3867;SDS011;1949;48.152;11.528;2023-01-31T00:21:24;5.60;;;2.50;;
3867;SDS011;1949;48.152;11.528;2023-01-31T00:23:52;5.90;;;1.90;;
3867;SDS011;1949;48.152;11.528;2023-01-31T00:26:21;5.67;;;2.30;;
3867;SDS011;1949;48.152;11.528;2023-01-31T00:28:47;3.73;;;1.83;;
3867;SDS011;1949;48.152;11.528;2023-01-31T00:31:15;5.30;;;2.50;;
3867;SDS011;1949;48.152;11.528;2023-01-31T00:33:44;3.60;;;2.20;;
3867;SDS011;1949;48.152;11.528;2023-01-31T00:36:12;7.70;;;3.23;;
3867;SDS011;1949;48.152;11.528;2023-01-31T00:38:39;3.33;;;2.17;;
3867;SDS011;1949;48.152;11.528;2023-01-31T00:41:10;8.40;;;2.50;;
3867;SDS011;1949;48.152;11.528;2023-01-31T00:43:36;4.13;;;1.80;;
3867;SDS011;1949;48.152;11.528;2023-01-31T00:46:02;3.50;;;2.40;;
3867;SDS011;1949;48.152;11.528;2023-01-31T00:48:28;3.60;;;2.33;;
3867;SDS011;1949;48.152;11.528;2023-01-31T00:50:55;7.10;;;2.40;;
3867;SDS011;1949;48.152;11.528;2023-01-31T00:53:22;4.40;;;2.50;;
3867;SDS011;1949;48.152;11.528;2023-01-31T00:55:53;5.57;;;2.30;;
3867;SDS011;1949;48.152;11.528;2023-01-31T00:58:21;4.53;;;2.33;;
3867;SDS011;1949;48.152;11.528;2023-01-31T01:00:47;2.60;;;2.23;;
3867;SDS011;1949;48.152;11.528;2023-01-31T01:03:13;3.00;;;2.10;;
3867;SDS011;1949;48.152;11.528;2023-01-31T01:05:40;4.00;;;2.40;;
3867;SDS011;1949;48.152;11.528;2023-01-31T01:08:06;4.00;;;2.23;;
3867;SDS011;1949;48.152;11.528;2023-01-31T01:10:32;4.23;;;2.00;;
3867;SDS011;1949;48.152;11.528;2023-01-31T01:12:59;4.03;;;2.93;;
3867;SDS011;1949;48.152;11.528;2023-01-31T01:15:25;3.57;;;2.40;;
3867;SDS011;1949;48.152;11.528;2023-01-31T01:17:51;5.83;;;2.33;;
3867;SDS011;1949;48.152;11.528;2023-01-31T01:20:17;22.87;;;2.83;;
3867;SDS011;1949;48.152;11.528;2023-01-31T01:22:44;8.07;;;2.80;;
3867;SDS011;1949;48.152;11.528;2023-01-31T01:25:09;8.33;;;2.80;;
3867;SDS011;1949;48.152;11.528;2023-01-31T01:27:38;3.13;;;2.40;;
3867;SDS011;1949;48.152;11.528;2023-01-31T01:30:04;2.87;;;2.30;;
3867;SDS011;1949;48.152;11.528;2023-01-31T01:32:30;4.03;;;2.50;;
3867;SDS011;1949;48.152;11.528;2023-01-31T01:34:56;4.20;;;2.20;;
3867;SDS011;1949;48.152;11.528;2023-01-31T01:37:21;7.80;;;2.27;;
3867;SDS011;1949;48.152;11.528;2023-01-31T01:39:47;5.13;;;2.17;;
3867;SDS011;1949;48.152;11.528;2023-01-31T01:42:17;4.77;;;2.60;;
3867;SDS011;1949;48.152;11.528;2023-01-31T01:44:51;6.73;;;2.87;;
3867;SDS011;1949;48.152;11.528;2023-01-31T01:47:35;3.80;;;2.50;;
3867;SDS011;1949;48.152;11.528;2023-01-31T01:50:51;2.83;;;2.10;;
3867;SDS011;1949;48.152;11.528;2023-01-31T01:53:09;8.10;;;3.00;;
3867;SDS011;1949;48.152;11.528;2023-01-31T01:55:48;4.40;;;2.87;;
3867;SDS011;1949;48.152;11.528;2023-01-31T02:00:46;9.07;;;2.60;;
3867;SDS011;1949;48.152;11.528;2023-01-31T02:03:15;6.37;;;2.73;;
3867;SDS011;1949;48.152;11.528;2023-01-31T02:05:46;8.17;;;2.73;;
3867;SDS011;1949;48.152;11.528;2023-01-31T02:08:20;4.43;;;2.80;;
3867;SDS011;1949;48.152;11.528;2023-01-31T02:13:30;6.63;;;2.63;;
3867;SDS011;1949;48.152;11.528;2023-01-31T02:15:57;4.93;;;2.57;;
3867;SDS011;1949;48.152;11.528;2023-01-31T02:18:24;7.47;;;2.70;;
3867;SDS011;1949;48.152;11.528;2023-01-31T02:41:26;3.77;;;2.20;;
3867;SDS011;1949;48.152;11.528;2023-01-31T02:44:02;10.83;;;2.50;;
3867;SDS011;1949;48.152;11.528;2023-01-31T02:49:55;7.10;;;2.50;;
3867;SDS011;1949;48.152;11.528;2023-01-31T02:52:42;5.07;;;2.43;;
3867;SDS011;1949;48.152;11.528;2023-01-31T02:55:16;3.50;;;2.40;;
3867;SDS011;1949;48.152;11.528;2023-01-31T02:58:02;7.57;;;2.67;;
3867;SDS011;1949;48.152;11.528;2023-01-31T03:00:31;4.43;;;2.07;;
3867;SDS011;1949;48.152;11.528;2023-01-31T03:02:59;6.30;;;2.00;;
3867;SDS011;1949;48.152;11.528;2023-01-31T03:05:25;4.70;;;2.33;;
3867;SDS011;1949;48.152;11.528;2023-01-31T03:07:55;5.23;;;2.23;;
3867;SDS011;1949;48.152;11.528;2023-01-31T03:10:31;16.93;;;2.80;;
3867;SDS011;1949;48.152;11.528;2023-01-31T03:16:16;4.40;;;2.13;;
3867;SDS011;1949;48.152;11.528;2023-01-31T03:19:08;7.53;;;2.30;;
3867;SDS011;1949;48.152;11.528;2023-01-31T03:21:56;4.30;;;2.47;;
3867;SDS011;1949;48.152;11.528;2023-01-31T03:24:34;8.53;;;2.23;;
3867;SDS011;1949;48.152;11.528;2023-01-31T03:27:10;4.57;;;2.17;;
3867;SDS011;1949;48.152;11.528;2023-01-31T03:29:36;7.40;;;2.47;;
3867;SDS011;1949;48.152;11.528;2023-01-31T03:32:10;4.27;;;2.77;;
3867;SDS011;1949;48.152;11.528;2023-01-31T03:34:44;4.77;;;2.60;;
3867;SDS011;1949;48.152;11.528;2023-01-31T03:37:20;5.17;;;2.30;;
3867;SDS011;1949;48.152;11.528;2023-01-31T03:40:16;4.30;;;1.80;;
3867;SDS011;1949;48.152;11.528;2023-01-31T03:43:09;4.33;;;2.87;;
3867;SDS011;1949;48.152;11.528;2023-01-31T03:45:46;3.53;;;2.30;;
3867;SDS011;1949;48.152;11.528;2023-01-31T03:48:18;5.73;;;2.90;;
3867;SDS011;1949;48.152;11.528;2023-01-31T03:50:55;7.70;;;2.53;;
3867;SDS011;1949;48.152;11.528;2023-01-31T03:53:29;4.27;;;1.87;;
3867;SDS011;1949;48.152;11.528;2023-01-31T03:56:12;6.97;;;3.07;;
3867;SDS011;1949;48.152;11.528;2023-01-31T03:58:42;4.30;;;2.53;;
3867;SDS011;1949;48.152;11.528;2023-01-31T04:03:46;3.73;;;2.33;;
3867;SDS011;1949;48.152;11.528;2023-01-31T04:06:17;10.13;;;2.80;;
3867;SDS011;1949;48.152;11.528;2023-01-31T04:11:12;2.30;;;2.10;;
3867;SDS011;1949;48.152;11.528;2023-01-31T04:13:39;11.37;;;3.00;;
3867;SDS011;1949;48.152;11.528;2023-01-31T04:16:06;6.40;;;3.50;;
3867;SDS011;1949;48.152;11.528;2023-01-31T04:18:35;4.03;;;2.37;;
3867;SDS011;1949;48.152;11.528;2023-01-31T04:21:01;11.83;;;2.50;;
3867;SDS011;1949;48.152;11.528;2023-01-31T04:23:27;3.13;;;2.30;;
3867;SDS011;1949;48.152;11.528;2023-01-31T04:25:53;7.10;;;2.73;;
3867;SDS011;1949;48.152;11.528;2023-01-31T04:28:20;5.67;;;2.50;;
3867;SDS011;1949;48.152;11.528;2023-01-31T04:30:51;4.47;;;2.60;;
3867;SDS011;1949;48.152;11.528;2023-01-31T04:33:23;7.63;;;2.70;;
3867;SDS011;1949;48.152;11.528;2023-01-31T04:35:50;5.07;;;2.60;;
3867;SDS011;1949;48.152;11.528;2023-01-31T04:38:16;6.30;;;2.70;;
3867;SDS011;1949;48.152;11.528;2023-01-31T04:40:42;6.03;;;2.63;;
3867;SDS011;1949;48.152;11.528;2023-01-31T04:43:07;4.90;;;2.43;;
3867;SDS011;1949;48.152;11.528;2023-01-31T04:45:35;3.67;;;1.90;;
3867;SDS011;1949;48.152;11.528;2023-01-31T04:48:01;21.17;;;3.13;;
3867;SDS011;1949;48.152;11.528;2023-01-31T04:52:55;9.13;;;2.80;;
3867;SDS011;1949;48.152;11.528;2023-01-31T04:55:23;3.27;;;2.40;;
3867;SDS011;1949;48.152;11.528;2023-01-31T04:57:50;8.43;;;3.57;;
3867;SDS011;1949;48.152;11.528;2023-01-31T05:00:16;4.10;;;2.50;;
3867;SDS011;1949;48.152;11.528;2023-01-31T05:02:43;6.13;;;2.83;;
3867;SDS011;1949;48.152;11.528;2023-01-31T05:05:10;4.83;;;2.40;;
3867;SDS011;1949;48.152;11.528;2023-01-31T05:07:38;8.30;;;2.67;;
3867;SDS011;1949;48.152;11.528;2023-01-31T05:10:04;3.40;;;2.07;;
3867;SDS011;1949;48.152;11.528;2023-01-31T05:12:30;11.33;;;3.40;;
3867;SDS011;1949;48.152;11.528;2023-01-31T05:14:58;3.70;;;2.07;;
3867;SDS011;1949;48.152;11.528;2023-01-31T05:17:23;3.87;;;2.20;;
3867;SDS011;1949;48.152;11.528;2023-01-31T05:19:51;9.03;;;2.77;;
3867;SDS011;1949;48.152;11.528;2023-01-31T05:22:17;2.57;;;1.80;;
3867;SDS011;1949;48.152;11.528;2023-01-31T05:24:54;7.20;;;2.43;;
3867;SDS011;1949;48.152;11.528;2023-01-31T05:27:20;10.33;;;2.40;;
3867;SDS011;1949;48.152;11.528;2023-01-31T05:29:46;5.30;;;2.57;;
3867;SDS011;1949;48.152;11.528;2023-01-31T05:32:12;5.93;;;2.70;;
3867;SDS011;1949;48.152;11.528;2023-01-31T05:34:39;8.80;;;2.70;;
3867;SDS011;1949;48.152;11.528;2023-01-31T05:37:05;6.03;;;2.70;;
3867;SDS011;1949;48.152;11.528;2023-01-31T05:39:31;9.80;;;3.40;;
3867;SDS011;1949;48.152;11.528;2023-01-31T05:41:57;3.73;;;2.00;;
3867;SDS011;1949;48.152;11.528;2023-01-31T05:44:22;4.37;;;2.80;;
3867;SDS011;1949;48.152;11.528;2023-01-31T05:46:48;9.70;;;3.10;;
3867;SDS011;1949;48.152;11.528;2023-01-31T05:49:15;8.00;;;2.73;;
3867;SDS011;1949;48.152;11.528;2023-01-31T05:51:41;9.33;;;2.37;;
3867;SDS011;1949;48.152;11.528;2023-01-31T05:54:07;4.67;;;2.10;;
3867;SDS011;1949;48.152;11.528;2023-01-31T05:56:35;3.97;;;2.07;;
3867;SDS011;1949;48.152;11.528;2023-01-31T05:59:02;4.97;;;2.40;;
3867;SDS011;1949;48.152;11.528;2023-01-31T06:01:33;5.73;;;2.40;;
3867;SDS011;1949;48.152;11.528;2023-01-31T06:04:00;11.43;;;4.83;;
3867;SDS011;1949;48.152;11.528;2023-01-31T06:06:27;11.80;;;2.97;;
3867;SDS011;1949;48.152;11.528;2023-01-31T06:08:53;7.50;;;2.77;;
3867;SDS011;1949;48.152;11.528;2023-01-31T06:11:18;9.37;;;3.43;;
3867;SDS011;1949;48.152;11.528;2023-01-31T06:13:44;15.30;;;4.40;;
3867;SDS011;1949;48.152;11.528;2023-01-31T06:16:10;8.87;;;2.50;;
3867;SDS011;1949;48.152;11.528;2023-01-31T06:18:36;7.80;;;3.20;;
3867;SDS011;1949;48.152;11.528;2023-01-31T06:21:02;9.07;;;3.87;;
3867;SDS011;1949;48.152;11.528;2023-01-31T06:23:28;12.60;;;3.33;;
3867;SDS011;1949;48.152;11.528;2023-01-31T06:25:54;7.50;;;2.90;;
3867;SDS011;1949;48.152;11.528;2023-01-31T06:28:20;4.30;;;2.70;;
3867;SDS011;1949;48.152;11.528;2023-01-31T06:30:46;9.60;;;5.00;;
3867;SDS011;1949;48.152;11.528;2023-01-31T06:33:14;14.00;;;4.00;;
3867;SDS011;1949;48.152;11.528;2023-01-31T06:35:39;13.73;;;5.50;;
3867;SDS011;1949;48.152;11.528;2023-01-31T06:38:07;17.37;;;4.27;;
3867;SDS011;1949;48.152;11.528;2023-01-31T06:40:33;10.53;;;4.03;;
3867;SDS011;1949;48.152;11.528;2023-01-31T06:43:00;9.67;;;3.90;;
3867;SDS011;1949;48.152;11.528;2023-01-31T06:45:27;11.27;;;4.37;;
3867;SDS011;1949;48.152;11.528;2023-01-31T06:47:53;9.87;;;3.00;;
3867;SDS011;1949;48.152;11.528;2023-01-31T06:50:19;5.13;;;3.20;;
3867;SDS011;1949;48.152;11.528;2023-01-31T06:52:45;23.63;;;9.10;;
3867;SDS011;1949;48.152;11.528;2023-01-31T06:55:10;27.67;;;10.07;;
3867;SDS011;1949;48.152;11.528;2023-01-31T06:57:44;17.83;;;7.07;;
3867;SDS011;1949;48.152;11.528;2023-01-31T07:00:11;12.70;;;4.60;;
3867;SDS011;1949;48.152;11.528;2023-01-31T07:02:39;4.43;;;3.07;;
3867;SDS011;1949;48.152;11.528;2023-01-31T07:05:19;7.70;;;2.63;;
3867;SDS011;1949;48.152;11.528;2023-01-31T07:07:49;13.00;;;5.00;;
3867;SDS011;1949;48.152;11.528;2023-01-31T07:10:16;5.80;;;3.30;;
3867;SDS011;1949;48.152;11.528;2023-01-31T07:15:51;7.13;;;3.33;;
3867;SDS011;1949;48.152;11.528;2023-01-31T07:27:49;7.47;;;3.10;;
3867;SDS011;1949;48.152;11.528;2023-01-31T07:30:22;10.80;;;2.90;;
3867;SDS011;1949;48.152;11.528;2023-01-31T07:32:49;12.90;;;2.90;;
3867;SDS011;1949;48.152;11.528;2023-01-31T07:35:15;7.87;;;2.30;;
3867;SDS011;1949;48.152;11.528;2023-01-31T07:40:31;7.20;;;2.53;;
3867;SDS011;1949;48.152;11.528;2023-01-31T07:42:59;4.70;;;2.10;;
3867;SDS011;1949;48.152;11.528;2023-01-31T07:45:27;9.93;;;2.50;;
3867;SDS011;1949;48.152;11.528;2023-01-31T07:53:04;9.23;;;2.23;;
3867;SDS011;1949;48.152;11.528;2023-01-31T07:55:29;11.67;;;2.00;;
3867;SDS011;1949;48.152;11.528;2023-01-31T08:00:25;10.43;;;3.60;;
3867;SDS011;1949;48.152;11.528;2023-01-31T08:03:24;5.80;;;2.00;;
3867;SDS011;1949;48.152;11.528;2023-01-31T08:05:59;10.07;;;2.20;;
3867;SDS011;1949;48.152;11.528;2023-01-31T08:08:31;13.53;;;2.90;;
3867;SDS011;1949;48.152;11.528;2023-01-31T08:13:29;3.57;;;2.10;;
3867;SDS011;1949;48.152;11.528;2023-01-31T08:16:03;4.77;;;2.00;;
3867;SDS011;1949;48.152;11.528;2023-01-31T08:21:00;7.97;;;2.30;;
3867;SDS011;1949;48.152;11.528;2023-01-31T08:26:02;20.43;;;2.67;;
3867;SDS011;1949;48.152;11.528;2023-01-31T08:28:32;4.23;;;2.00;;
3867;SDS011;1949;48.152;11.528;2023-01-31T08:30:59;3.20;;;1.77;;
3867;SDS011;1949;48.152;11.528;2023-01-31T08:33:25;5.73;;;2.10;;
3867;SDS011;1949;48.152;11.528;2023-01-31T08:35:51;8.03;;;2.17;;
3867;SDS011;1949;48.152;11.528;2023-01-31T08:38:17;8.70;;;2.10;;
3867;SDS011;1949;48.152;11.528;2023-01-31T08:40:42;5.97;;;1.77;;
3867;SDS011;1949;48.152;11.528;2023-01-31T08:46:01;4.27;;;2.20;;
3867;SDS011;1949;48.152;11.528;2023-01-31T08:51:14;15.33;;;2.47;;
3867;SDS011;1949;48.152;11.528;2023-01-31T08:53:52;4.73;;;1.90;;
3867;SDS011;1949;48.152;11.528;2023-01-31T08:56:18;3.07;;;1.57;;
3867;SDS011;1949;48.152;11.528;2023-01-31T08:59:01;10.60;;;2.27;;
3867;SDS011;1949;48.152;11.528;2023-01-31T09:01:37;5.00;;;2.20;;
3867;SDS011;1949;48.152;11.528;2023-01-31T09:04:14;10.73;;;2.77;;
3867;SDS011;1949;48.152;11.528;2023-01-31T09:09:12;2.13;;;1.60;;
3867;SDS011;1949;48.152;11.528;2023-01-31T09:11:45;4.80;;;1.50;;
3867;SDS011;1949;48.152;11.528;2023-01-31T09:14:10;3.57;;;1.43;;
3867;SDS011;1949;48.152;11.528;2023-01-31T09:16:36;2.47;;;2.27;;
3867;SDS011;1949;48.152;11.528;2023-01-31T09:21:59;8.00;;;1.70;;
3867;SDS011;1949;48.152;11.528;2023-01-31T09:24:24;11.70;;;2.77;;
3867;SDS011;1949;48.152;11.528;2023-01-31T09:26:56;5.07;;;2.47;;
3867;SDS011;1949;48.152;11.528;2023-01-31T09:29:30;3.40;;;1.70;;
3867;SDS011;1949;48.152;11.528;2023-01-31T09:31:57;9.97;;;2.80;;
3867;SDS011;1949;48.152;11.528;2023-01-31T09:34:28;6.63;;;2.53;;
3867;SDS011;1949;48.152;11.528;2023-01-31T09:36:54;4.70;;;2.10;;
3867;SDS011;1949;48.152;11.528;2023-01-31T09:39:22;10.93;;;2.70;;
3867;SDS011;1949;48.152;11.528;2023-01-31T09:42:00;1.37;;;1.27;;
3867;SDS011;1949;48.152;11.528;2023-01-31T09:47:43;5.33;;;2.23;;
3867;SDS011;1949;48.152;11.528;2023-01-31T09:52:50;10.20;;;2.20;;
3867;SDS011;1949;48.152;11.528;2023-01-31T09:55:23;3.10;;;2.10;;
3867;SDS011;1949;48.152;11.528;2023-01-31T09:58:28;4.33;;;2.10;;
3867;SDS011;1949;48.152;11.528;2023-01-31T10:06:42;2.80;;;1.43;;
3867;SDS011;1949;48.152;11.528;2023-01-31T10:09:30;4.20;;;1.60;;
3867;SDS011;1949;48.152;11.528;2023-01-31T10:12:07;8.73;;;1.40;;
3867;SDS011;1949;48.152;11.528;2023-01-31T10:14:46;7.60;;;3.40;;
3867;SDS011;1949;48.152;11.528;2023-01-31T10:19:55;3.23;;;1.40;;
3867;SDS011;1949;48.152;11.528;2023-01-31T10:25:15;7.13;;;2.00;;
3867;SDS011;1949;48.152;11.528;2023-01-31T10:27:53;4.10;;;1.70;;
3867;SDS011;1949;48.152;11.528;2023-01-31T10:30:48;10.20;;;2.13;;
3867;SDS011;1949;48.152;11.528;2023-01-31T10:39:54;2.80;;;1.53;;
3867;SDS011;1949;48.152;11.528;2023-01-31T10:42:33;4.10;;;1.60;;
3867;SDS011;1949;48.152;11.528;2023-01-31T10:47:57;8.53;;;2.27;;
3867;SDS011;1949;48.152;11.528;2023-01-31T10:56:55;7.53;;;1.87;;
3867;SDS011;1949;48.152;11.528;2023-01-31T10:58:57;7.40;;;3.23;;
3867;SDS011;1949;48.152;11.528;2023-01-31T11:01:27;5.73;;;2.17;;
3867;SDS011;1949;48.152;11.528;2023-01-31T11:03:54;14.07;;;1.80;;
3867;SDS011;1949;48.152;11.528;2023-01-31T11:06:23;4.70;;;1.60;;
3867;SDS011;1949;48.152;11.528;2023-01-31T11:08:59;2.10;;;1.57;;
3867;SDS011;1949;48.152;11.528;2023-01-31T11:11:30;9.70;;;2.83;;
3867;SDS011;1949;48.152;11.528;2023-01-31T11:13:58;6.77;;;2.40;;
3867;SDS011;1949;48.152;11.528;2023-01-31T11:16:32;5.57;;;2.00;;
3867;SDS011;1949;48.152;11.528;2023-01-31T11:19:50;4.33;;;1.60;;
3867;SDS011;1949;48.152;11.528;2023-01-31T11:22:03;4.97;;;1.80;;
3867;SDS011;1949;48.152;11.528;2023-01-31T11:24:32;4.50;;;2.20;;
3867;SDS011;1949;48.152;11.528;2023-01-31T11:27:12;6.20;;;1.60;;
3867;SDS011;1949;48.152;11.528;2023-01-31T11:29:48;8.20;;;2.30;;
3867;SDS011;1949;48.152;11.528;2023-01-31T11:32:21;7.50;;;2.53;;
3867;SDS011;1949;48.152;11.528;2023-01-31T11:35:33;12.40;;;2.13;;
3867;SDS011;1949;48.152;11.528;2023-01-31T11:40:37;19.90;;;3.50;;
3867;SDS011;1949;48.152;11.528;2023-01-31T11:45:53;6.13;;;2.27;;
3867;SDS011;1949;48.152;11.528;2023-01-31T11:51:12;4.13;;;2.40;;
3867;SDS011;1949;48.152;11.528;2023-01-31T11:53:51;19.53;;;4.13;;
3867;SDS011;1949;48.152;11.528;2023-01-31T11:56:20;6.43;;;2.47;;
3867;SDS011;1949;48.152;11.528;2023-01-31T11:58:49;4.93;;;2.23;;
3867;SDS011;1949;48.152;11.528;2023-01-31T12:01:19;7.73;;;2.20;;
3867;SDS011;1949;48.152;11.528;2023-01-31T12:03:48;6.10;;;2.47;;
3867;SDS011;1949;48.152;11.528;2023-01-31T12:06:36;2.93;;;1.63;;
3867;SDS011;1949;48.152;11.528;2023-01-31T12:09:20;3.77;;;2.23;;
3867;SDS011;1949;48.152;11.528;2023-01-31T12:14:18;2.20;;;1.90;;
3867;SDS011;1949;48.152;11.528;2023-01-31T12:16:45;3.20;;;2.30;;
3867;SDS011;1949;48.152;11.528;2023-01-31T12:24:59;9.77;;;2.33;;
3867;SDS011;1949;48.152;11.528;2023-01-31T12:29:55;5.23;;;2.60;;
3867;SDS011;1949;48.152;11.528;2023-01-31T13:11:07;6.97;;;3.20;;
3867;SDS011;1949;48.152;11.528;2023-01-31T13:13:49;4.67;;;3.07;;
3867;SDS011;1949;48.152;11.528;2023-01-31T13:18:53;7.10;;;2.80;;
3867;SDS011;1949;48.152;11.528;2023-01-31T13:21:26;6.77;;;3.30;;
3867;SDS011;1949;48.152;11.528;2023-01-31T13:24:07;7.73;;;3.23;;
3867;SDS011;1949;48.152;11.528;2023-01-31T13:29:18;32.87;;;3.97;;
3867;SDS011;1949;48.152;11.528;2023-01-31T13:31:56;8.60;;;4.30;;
3867;SDS011;1949;48.152;11.528;2023-01-31T13:34:42;5.43;;;2.80;;
3867;SDS011;1949;48.152;11.528;2023-01-31T13:37:13;7.13;;;3.97;;
3867;SDS011;1949;48.152;11.528;2023-01-31T13:39:47;8.23;;;3.53;;
3867;SDS011;1949;48.152;11.528;2023-01-31T13:42:17;5.63;;;2.87;;
3867;SDS011;1949;48.152;11.528;2023-01-31T13:44:45;6.40;;;3.50;;
3867;SDS011;1949;48.152;11.528;2023-01-31T13:47:13;12.10;;;3.90;;
3867;SDS011;1949;48.152;11.528;2023-01-31T13:55:22;16.33;;;7.37;;
3867;SDS011;1949;48.152;11.528;2023-01-31T13:57:57;10.77;;;3.50;;
3867;SDS011;1949;48.152;11.528;2023-01-31T14:00:42;7.00;;;3.40;;
3867;SDS011;1949;48.152;11.528;2023-01-31T14:03:15;4.93;;;3.13;;
3867;SDS011;1949;48.152;11.528;2023-01-31T14:06:00;5.77;;;3.40;;
3867;SDS011;1949;48.152;11.528;2023-01-31T14:08:56;5.00;;;2.60;;
3867;SDS011;1949;48.152;11.528;2023-01-31T14:20:01;9.60;;;4.50;;
3867;SDS011;1949;48.152;11.528;2023-01-31T14:27:38;10.73;;;4.17;;
3867;SDS011;1949;48.152;11.528;2023-01-31T14:30:10;17.13;;;4.23;;
3867;SDS011;1949;48.152;11.528;2023-01-31T14:32:46;8.70;;;3.73;;
3867;SDS011;1949;48.152;11.528;2023-01-31T14:46:51;7.87;;;3.70;;
3867;SDS011;1949;48.152;11.528;2023-01-31T14:55:18;7.83;;;3.97;;
3867;SDS011;1949;48.152;11.528;2023-01-31T14:58:04;8.60;;;3.50;;
3867;SDS011;1949;48.152;11.528;2023-01-31T15:00:45;6.97;;;3.80;;
3867;SDS011;1949;48.152;11.528;2023-01-31T15:09:17;6.53;;;2.90;;
3867;SDS011;1949;48.152;11.528;2023-01-31T15:11:53;14.20;;;5.33;;
3867;SDS011;1949;48.152;11.528;2023-01-31T15:17:17;10.03;;;3.13;;
3867;SDS011;1949;48.152;11.528;2023-01-31T15:19:50;8.17;;;4.23;;
3867;SDS011;1949;48.152;11.528;2023-01-31T15:22:21;8.33;;;4.13;;
3867;SDS011;1949;48.152;11.528;2023-01-31T15:24:58;7.90;;;3.63;;
3867;SDS011;1949;48.152;11.528;2023-01-31T15:27:34;7.67;;;3.60;;
3867;SDS011;1949;48.152;11.528;2023-01-31T15:41:50;6.67;;;3.53;;
3867;SDS011;1949;48.152;11.528;2023-01-31T15:44:25;4.97;;;2.87;;
3867;SDS011;1949;48.152;11.528;2023-01-31T15:47:17;5.17;;;3.33;;
3867;SDS011;1949;48.152;11.528;2023-01-31T15:49:46;10.73;;;4.30;;
3867;SDS011;1949;48.152;11.528;2023-01-31T15:52:17;8.03;;;4.47;;
3867;SDS011;1949;48.152;11.528;2023-01-31T15:54:52;4.50;;;2.57;;
3867;SDS011;1949;48.152;11.528;2023-01-31T15:57:21;8.03;;;3.67;;
3867;SDS011;1949;48.152;11.528;2023-01-31T15:59:54;8.33;;;3.83;;
3867;SDS011;1949;48.152;11.528;2023-01-31T16:02:26;9.30;;;3.60;;
3867;SDS011;1949;48.152;11.528;2023-01-31T16:04:54;8.40;;;3.90;;
3867;SDS011;1949;48.152;11.528;2023-01-31T16:07:27;7.80;;;4.03;;
3867;SDS011;1949;48.152;11.528;2023-01-31T16:09:55;8.23;;;4.47;;
3867;SDS011;1949;48.152;11.528;2023-01-31T16:12:24;10.67;;;3.17;;
3867;SDS011;1949;48.152;11.528;2023-01-31T16:14:54;4.43;;;2.93;;
3867;SDS011;1949;48.152;11.528;2023-01-31T16:17:26;14.63;;;3.50;;
3867;SDS011;1949;48.152;11.528;2023-01-31T16:19:53;15.67;;;4.87;;
3867;SDS011;1949;48.152;11.528;2023-01-31T16:25:03;10.10;;;3.60;;
3867;SDS011;1949;48.152;11.528;2023-01-31T16:27:32;11.60;;;5.23;;
3867;SDS011;1949;48.152;11.528;2023-01-31T16:30:02;8.80;;;3.47;;
3867;SDS011;1949;48.152;11.528;2023-01-31T16:32:42;8.53;;;3.40;;
3867;SDS011;1949;48.152;11.528;2023-01-31T16:35:21;13.37;;;5.03;;
3867;SDS011;1949;48.152;11.528;2023-01-31T16:38:04;9.23;;;4.40;;
3867;SDS011;1949;48.152;11.528;2023-01-31T16:49:03;6.73;;;3.80;;
3867;SDS011;1949;48.152;11.528;2023-01-31T16:51:41;5.40;;;3.23;;
3867;SDS011;1949;48.152;11.528;2023-01-31T16:54:23;14.13;;;5.20;;
3867;SDS011;1949;48.152;11.528;2023-01-31T16:57:06;10.77;;;3.37;;
3867;SDS011;1949;48.152;11.528;2023-01-31T16:59:56;6.13;;;3.50;;
3867;SDS011;1949;48.152;11.528;2023-01-31T17:02:30;6.10;;;2.90;;
3867;SDS011;1949;48.152;11.528;2023-01-31T17:04:59;11.60;;;5.43;;
3867;SDS011;1949;48.152;11.528;2023-01-31T17:07:35;14.93;;;5.87;;
3867;SDS011;1949;48.152;11.528;2023-01-31T17:10:03;15.37;;;5.30;;
3867;SDS011;1949;48.152;11.528;2023-01-31T17:12:41;10.60;;;4.93;;
3867;SDS011;1949;48.152;11.528;2023-01-31T17:15:11;7.87;;;3.30;;
3867;SDS011;1949;48.152;11.528;2023-01-31T17:17:39;9.07;;;3.80;;
3867;SDS011;1949;48.152;11.528;2023-01-31T17:20:06;9.63;;;3.50;;
3867;SDS011;1949;48.152;11.528;2023-01-31T17:22:39;6.50;;;3.40;;
3867;SDS011;1949;48.152;11.528;2023-01-31T17:25:10;11.43;;;5.03;;
3867;SDS011;1949;48.152;11.528;2023-01-31T17:27:54;6.60;;;3.10;;
3867;SDS011;1949;48.152;11.528;2023-01-31T17:33:08;6.97;;;3.57;;
3867;SDS011;1949;48.152;11.528;2023-01-31T17:35:37;6.73;;;3.70;;
3867;SDS011;1949;48.152;11.528;2023-01-31T17:38:07;11.20;;;5.10;;
3867;SDS011;1949;48.152;11.528;2023-01-31T17:40:39;8.33;;;3.50;;
3867;SDS011;1949;48.152;11.528;2023-01-31T17:43:18;5.83;;;3.00;;
3867;SDS011;1949;48.152;11.528;2023-01-31T17:45:45;11.87;;;4.87;;
3867;SDS011;1949;48.152;11.528;2023-01-31T17:48:11;12.90;;;4.20;;
3867;SDS011;1949;48.152;11.528;2023-01-31T17:50:37;15.47;;;4.20;;
3867;SDS011;1949;48.152;11.528;2023-01-31T17:53:02;10.00;;;3.90;;
3867;SDS011;1949;48.152;11.528;2023-01-31T17:55:29;7.87;;;3.77;;
3867;SDS011;1949;48.152;11.528;2023-01-31T17:57:54;12.50;;;4.07;;
3867;SDS011;1949;48.152;11.528;2023-01-31T18:00:22;8.03;;;4.10;;
3867;SDS011;1949;48.152;11.528;2023-01-31T18:02:48;8.97;;;4.90;;
3867;SDS011;1949;48.152;11.528;2023-01-31T18:05:14;43.93;;;17.93;;
3867;SDS011;1949;48.152;11.528;2023-01-31T18:07:42;97.57;;;36.17;;
3867;SDS011;1949;48.152;11.528;2023-01-31T18:10:07;83.73;;;32.40;;
3867;SDS011;1949;48.152;11.528;2023-01-31T18:12:34;41.43;;;15.03;;
3867;SDS011;1949;48.152;11.528;2023-01-31T18:15:00;97.37;;;9.60;;
3867;SDS011;1949;48.152;11.528;2023-01-31T18:20:00;13.13;;;6.03;;
3867;SDS011;1949;48.152;11.528;2023-01-31T18:22:26;10.03;;;4.27;;
3867;SDS011;1949;48.152;11.528;2023-01-31T18:24:51;11.40;;;3.60;;
3867;SDS011;1949;48.152;11.528;2023-01-31T18:27:18;7.33;;;4.60;;
3867;SDS011;1949;48.152;11.528;2023-01-31T18:29:44;8.83;;;3.37;;
3867;SDS011;1949;48.152;11.528;2023-01-31T18:32:10;6.33;;;3.40;;
3867;SDS011;1949;48.152;11.528;2023-01-31T18:34:36;9.03;;;4.83;;
3867;SDS011;1949;48.152;11.528;2023-01-31T18:37:03;15.73;;;7.13;;
3867;SDS011;1949;48.152;11.528;2023-01-31T18:39:34;6.70;;;3.33;;
3867;SDS011;1949;48.152;11.528;2023-01-31T18:42:00;7.50;;;3.73;;
3867;SDS011;1949;48.152;11.528;2023-01-31T18:44:27;6.70;;;3.30;;
3867;SDS011;1949;48.152;11.528;2023-01-31T18:47:00;6.80;;;3.90;;
3867;SDS011;1949;48.152;11.528;2023-01-31T18:49:32;6.10;;;3.37;;
3867;SDS011;1949;48.152;11.528;2023-01-31T18:52:02;6.20;;;3.83;;
3867;SDS011;1949;48.152;11.528;2023-01-31T18:54:31;6.53;;;3.67;;
3867;SDS011;1949;48.152;11.528;2023-01-31T18:57:04;5.30;;;3.10;;
3867;SDS011;1949;48.152;11.528;2023-01-31T18:59:30;7.90;;;4.03;;
3867;SDS011;1949;48.152;11.528;2023-01-31T19:04:28;7.93;;;3.17;;
3867;SDS011;1949;48.152;11.528;2023-01-31T19:06:54;10.50;;;3.20;;
3867;SDS011;1949;48.152;11.528;2023-01-31T19:09:19;6.90;;;3.50;;
3867;SDS011;1949;48.152;11.528;2023-01-31T19:11:48;7.40;;;3.40;;
3867;SDS011;1949;48.152;11.528;2023-01-31T19:14:16;4.80;;;2.67;;
3867;SDS011;1949;48.152;11.528;2023-01-31T19:16:46;7.33;;;2.83;;
3867;SDS011;1949;48.152;11.528;2023-01-31T19:19:13;5.87;;;2.73;;
3867;SDS011;1949;48.152;11.528;2023-01-31T19:21:40;11.30;;;3.00;;
3867;SDS011;1949;48.152;11.528;2023-01-31T19:24:13;5.13;;;3.00;;
3867;SDS011;1949;48.152;11.528;2023-01-31T19:26:40;6.03;;;3.40;;
3867;SDS011;1949;48.152;11.528;2023-01-31T19:29:06;4.23;;;3.10;;
3867;SDS011;1949;48.152;11.528;2023-01-31T19:31:36;4.17;;;3.00;;
3867;SDS011;1949;48.152;11.528;2023-01-31T19:34:04;6.87;;;3.30;;
3867;SDS011;1949;48.152;11.528;2023-01-31T19:36:32;8.97;;;3.10;;